sensor_id;sensor_type;location;lat;lon;timestamp;temperature;humidity
1129;DHT22;553;51.038;7.216;2023-07-13T00:00:26;18.90;82.30
1129;DHT22;553;51.038;7.216;2023-07-13T00:02:53;18.90;83.30
1129;DHT22;553;51.038;7.216;2023-07-13T00:05:21;18.80;82.20
1129;DHT22;553;51.038;7.216;2023-07-13T00:07:49;18.70;81.60
1129;DHT22;553;51.038;7.216;2023-07-13T00:10:16;18.40;82.30
1129;DHT22;553;51.038;7.216;2023-07-13T00:12:44;18.40;82.60
1129;DHT22;553;51.038;7.216;2023-07-13T00:15:18;18.30;83.40
1129;DHT22;553;51.038;7.216;2023-07-13T00:17:50;18.30;84.40
1129;DHT22;553;51.038;7.216;2023-07-13T00:20:18;18.20;83.80
1129;DHT22;553;51.038;7.216;2023-07-13T00:22:48;18.10;84.70
1129;DHT22;553;51.038;7.216;2023-07-13T00:25:16;18.20;85.40
1129;DHT22;553;51.038;7.216;2023-07-13T00:27:44;18.10;85.70
1129;DHT22;553;51.038;7.216;2023-07-13T00:30:11;18.10;85.60
1129;DHT22;553;51.038;7.216;2023-07-13T00:32:38;18.00;85.00
1129;DHT22;553;51.038;7.216;2023-07-13T00:35:05;18.00;86.10
1129;DHT22;553;51.038;7.216;2023-07-13T00:37:33;18.00;85.60
1129;DHT22;553;51.038;7.216;2023-07-13T00:40:05;17.70;85.50
1129;DHT22;553;51.038;7.216;2023-07-13T00:42:32;17.70;86.40
1129;DHT22;553;51.038;7.216;2023-07-13T00:47:28;17.70;88.10
1129;DHT22;553;51.038;7.216;2023-07-13T00:49:55;17.70;88.30
1129;DHT22;553;51.038;7.216;2023-07-13T00:52:23;17.60;88.60
1129;DHT22;553;51.038;7.216;2023-07-13T00:54:50;17.60;88.80
1129;DHT22;553;51.038;7.216;2023-07-13T00:57:19;17.50;89.40
1129;DHT22;553;51.038;7.216;2023-07-13T00:59:50;17.40;88.80
1129;DHT22;553;51.038;7.216;2023-07-13T01:02:18;17.40;89.40
1129;DHT22;553;51.038;7.216;2023-07-13T01:04:45;17.40;89.00
1129;DHT22;553;51.038;7.216;2023-07-13T01:07:12;17.30;89.20
1129;DHT22;553;51.038;7.216;2023-07-13T01:09:39;17.30;89.70
1129;DHT22;553;51.038;7.216;2023-07-13T01:12:07;17.10;89.50
1129;DHT22;553;51.038;7.216;2023-07-13T01:14:33;16.90;90.00
1129;DHT22;553;51.038;7.216;2023-07-13T01:17:00;16.70;91.00
1129;DHT22;553;51.038;7.216;2023-07-13T01:19:38;16.70;90.70
1129;DHT22;553;51.038;7.216;2023-07-13T01:22:08;16.70;91.30
1129;DHT22;553;51.038;7.216;2023-07-13T01:24:37;16.70;91.40
1129;DHT22;553;51.038;7.216;2023-07-13T01:27:06;16.80;91.20
1129;DHT22;553;51.038;7.216;2023-07-13T01:29:36;16.70;91.00
1129;DHT22;553;51.038;7.216;2023-07-13T01:32:14;16.50;91.20
1129;DHT22;553;51.038;7.216;2023-07-13T01:34:41;16.50;92.20
1129;DHT22;553;51.038;7.216;2023-07-13T01:37:12;16.50;92.00
1129;DHT22;553;51.038;7.216;2023-07-13T01:39:39;16.60;92.20
1129;DHT22;553;51.038;7.216;2023-07-13T01:42:06;16.60;92.00
1129;DHT22;553;51.038;7.216;2023-07-13T01:44:33;16.60;91.90
1129;DHT22;553;51.038;7.216;2023-07-13T01:47:00;16.50;92.20
1129;DHT22;553;51.038;7.216;2023-07-13T01:49:27;16.40;92.80
1129;DHT22;553;51.038;7.216;2023-07-13T01:51:54;16.40;92.80
1129;DHT22;553;51.038;7.216;2023-07-13T01:54:21;16.40;93.10
1129;DHT22;553;51.038;7.216;2023-07-13T01:56:50;16.30;93.40
1129;DHT22;553;51.038;7.216;2023-07-13T01:59:17;16.20;93.60
1129;DHT22;553;51.038;7.216;2023-07-13T02:01:43;16.20;93.40
1129;DHT22;553;51.038;7.216;2023-07-13T02:04:10;16.20;93.60
1129;DHT22;553;51.038;7.216;2023-07-13T02:06:37;16.20;93.70
1129;DHT22;553;51.038;7.216;2023-07-13T02:09:04;16.10;93.80
1129;DHT22;553;51.038;7.216;2023-07-13T02:11:32;16.10;94.20
1129;DHT22;553;51.038;7.216;2023-07-13T02:14:00;16.10;94.10
1129;DHT22;553;51.038;7.216;2023-07-13T02:16:29;16.10;94.10
1129;DHT22;553;51.038;7.216;2023-07-13T02:18:56;16.10;94.10
1129;DHT22;553;51.038;7.216;2023-07-13T02:21:24;16.00;94.20
1129;DHT22;553;51.038;7.216;2023-07-13T02:23:51;16.00;94.20
1129;DHT22;553;51.038;7.216;2023-07-13T02:26:19;16.00;94.70
1129;DHT22;553;51.038;7.216;2023-07-13T02:28:47;16.00;94.30
1129;DHT22;553;51.038;7.216;2023-07-13T02:31:15;16.00;94.40
1129;DHT22;553;51.038;7.216;2023-07-13T02:33:42;16.00;94.30
1129;DHT22;553;51.038;7.216;2023-07-13T02:36:10;16.00;94.40
1129;DHT22;553;51.038;7.216;2023-07-13T02:38:38;16.00;94.30
1129;DHT22;553;51.038;7.216;2023-07-13T02:41:06;16.00;94.40
1129;DHT22;553;51.038;7.216;2023-07-13T02:43:33;16.00;93.90
1129;DHT22;553;51.038;7.216;2023-07-13T02:46:01;16.10;94.00
1129;DHT22;553;51.038;7.216;2023-07-13T02:48:36;16.20;93.80
1129;DHT22;553;51.038;7.216;2023-07-13T02:51:04;16.20;93.90
1129;DHT22;553;51.038;7.216;2023-07-13T02:53:31;16.20;94.30
1129;DHT22;553;51.038;7.216;2023-07-13T02:55:58;16.20;94.20
1129;DHT22;553;51.038;7.216;2023-07-13T02:58:25;16.20;94.60
1129;DHT22;553;51.038;7.216;2023-07-13T03:00:52;16.20;94.90
1129;DHT22;553;51.038;7.216;2023-07-13T03:03:19;16.10;94.90
1129;DHT22;553;51.038;7.216;2023-07-13T03:05:46;16.10;94.80
1129;DHT22;553;51.038;7.216;2023-07-13T03:08:21;16.00;94.10
1129;DHT22;553;51.038;7.216;2023-07-13T03:11:02;16.00;95.10
1129;DHT22;553;51.038;7.216;2023-07-13T03:13:32;16.00;95.40
1129;DHT22;553;51.038;7.216;2023-07-13T03:15:59;15.90;95.30
1129;DHT22;553;51.038;7.216;2023-07-13T03:18:27;15.90;94.90
1129;DHT22;553;51.038;7.216;2023-07-13T03:20:56;15.80;96.00
1129;DHT22;553;51.038;7.216;2023-07-13T03:23:23;15.80;96.40
1129;DHT22;553;51.038;7.216;2023-07-13T03:26:01;15.70;96.70
1129;DHT22;553;51.038;7.216;2023-07-13T03:28:28;15.70;95.60
1129;DHT22;553;51.038;7.216;2023-07-13T03:31:08;15.60;95.10
1129;DHT22;553;51.038;7.216;2023-07-13T03:33:36;15.60;96.20
1129;DHT22;553;51.038;7.216;2023-07-13T03:36:05;15.60;96.40
1129;DHT22;553;51.038;7.216;2023-07-13T03:38:32;15.60;97.00
1129;DHT22;553;51.038;7.216;2023-07-13T03:41:01;15.60;97.00
1129;DHT22;553;51.038;7.216;2023-07-13T03:43:29;15.60;97.10
1129;DHT22;553;51.038;7.216;2023-07-13T03:45:56;15.60;97.20
1129;DHT22;553;51.038;7.216;2023-07-13T03:48:23;15.60;97.10
1129;DHT22;553;51.038;7.216;2023-07-13T03:50:50;15.60;96.90
1129;DHT22;553;51.038;7.216;2023-07-13T03:53:17;15.60;97.00
1129;DHT22;553;51.038;7.216;2023-07-13T03:55:46;15.70;97.00
1129;DHT22;553;51.038;7.216;2023-07-13T04:00:58;15.70;96.20
1129;DHT22;553;51.038;7.216;2023-07-13T04:03:25;15.70;96.80
1129;DHT22;553;51.038;7.216;2023-07-13T04:05:55;15.70;96.80
1129;DHT22;553;51.038;7.216;2023-07-13T04:08:27;15.70;95.90
1129;DHT22;553;51.038;7.216;2023-07-13T04:10:55;15.70;95.90
1129;DHT22;553;51.038;7.216;2023-07-13T04:13:23;15.70;96.20
1129;DHT22;553;51.038;7.216;2023-07-13T04:15:50;15.80;96.50
1129;DHT22;553;51.038;7.216;2023-07-13T04:18:17;15.80;95.80
1129;DHT22;553;51.038;7.216;2023-07-13T04:20:44;15.90;95.70
1129;DHT22;553;51.038;7.216;2023-07-13T04:23:11;15.90;96.00
1129;DHT22;553;51.038;7.216;2023-07-13T04:25:37;16.00;96.10
1129;DHT22;553;51.038;7.216;2023-07-13T04:28:05;16.00;95.80
1129;DHT22;553;51.038;7.216;2023-07-13T04:30:32;16.10;95.20
1129;DHT22;553;51.038;7.216;2023-07-13T04:32:59;16.10;95.60
1129;DHT22;553;51.038;7.216;2023-07-13T04:35:26;16.10;95.80
1129;DHT22;553;51.038;7.216;2023-07-13T04:37:53;16.20;95.70
1129;DHT22;553;51.038;7.216;2023-07-13T04:40:20;16.30;95.40
1129;DHT22;553;51.038;7.216;2023-07-13T04:42:47;16.30;95.40
1129;DHT22;553;51.038;7.216;2023-07-13T04:45:15;16.30;95.70
1129;DHT22;553;51.038;7.216;2023-07-13T04:47:41;16.30;95.80
1129;DHT22;553;51.038;7.216;2023-07-13T04:50:09;16.30;95.80
1129;DHT22;553;51.038;7.216;2023-07-13T04:52:37;16.20;96.20
1129;DHT22;553;51.038;7.216;2023-07-13T04:55:04;16.20;95.90
1129;DHT22;553;51.038;7.216;2023-07-13T04:57:31;16.10;95.60
1129;DHT22;553;51.038;7.216;2023-07-13T04:59:58;16.20;96.00
1129;DHT22;553;51.038;7.216;2023-07-13T05:02:27;16.20;95.80
1129;DHT22;553;51.038;7.216;2023-07-13T05:04:55;16.30;95.90
1129;DHT22;553;51.038;7.216;2023-07-13T05:07:22;16.30;96.00
1129;DHT22;553;51.038;7.216;2023-07-13T05:09:48;16.40;96.10
1129;DHT22;553;51.038;7.216;2023-07-13T05:12:15;16.40;95.80
1129;DHT22;553;51.038;7.216;2023-07-13T05:14:42;16.40;95.80
1129;DHT22;553;51.038;7.216;2023-07-13T05:17:09;16.50;95.60
1129;DHT22;553;51.038;7.216;2023-07-13T05:19:36;16.50;95.30
1129;DHT22;553;51.038;7.216;2023-07-13T05:22:03;16.60;95.40
1129;DHT22;553;51.038;7.216;2023-07-13T05:24:30;16.70;95.20
1129;DHT22;553;51.038;7.216;2023-07-13T05:26:57;16.80;95.00
1129;DHT22;553;51.038;7.216;2023-07-13T05:29:23;17.00;94.10
1129;DHT22;553;51.038;7.216;2023-07-13T05:31:50;17.10;94.60
1129;DHT22;553;51.038;7.216;2023-07-13T05:34:17;17.20;93.70
1129;DHT22;553;51.038;7.216;2023-07-13T05:36:44;17.30;93.90
1129;DHT22;553;51.038;7.216;2023-07-13T05:39:11;17.50;93.20
1129;DHT22;553;51.038;7.216;2023-07-13T05:41:38;17.70;92.90
1129;DHT22;553;51.038;7.216;2023-07-13T05:44:05;17.70;92.40
1129;DHT22;553;51.038;7.216;2023-07-13T05:46:32;17.90;92.70
1129;DHT22;553;51.038;7.216;2023-07-13T05:48:59;18.10;91.40
1129;DHT22;553;51.038;7.216;2023-07-13T05:51:26;18.10;91.80
1129;DHT22;553;51.038;7.216;2023-07-13T05:53:53;18.40;91.60
1129;DHT22;553;51.038;7.216;2023-07-13T05:56:20;18.50;90.70
1129;DHT22;553;51.038;7.216;2023-07-13T05:58:48;18.90;90.10
1129;DHT22;553;51.038;7.216;2023-07-13T06:01:15;19.00;89.50
1129;DHT22;553;51.038;7.216;2023-07-13T06:03:43;19.00;89.50
1129;DHT22;553;51.038;7.216;2023-07-13T06:06:10;19.10;89.70
1129;DHT22;553;51.038;7.216;2023-07-13T06:08:37;19.30;89.50
1129;DHT22;553;51.038;7.216;2023-07-13T06:11:12;19.40;88.90
1129;DHT22;553;51.038;7.216;2023-07-13T06:13:40;19.30;88.90
1129;DHT22;553;51.038;7.216;2023-07-13T06:16:07;19.40;89.50
1129;DHT22;553;51.038;7.216;2023-07-13T06:18:36;19.30;89.00
1129;DHT22;553;51.038;7.216;2023-07-13T06:21:11;19.10;90.40
1129;DHT22;553;51.038;7.216;2023-07-13T06:23:38;18.90;89.90
1129;DHT22;553;51.038;7.216;2023-07-13T06:26:06;18.70;90.90
1129;DHT22;553;51.038;7.216;2023-07-13T06:28:33;18.70;91.80
1129;DHT22;553;51.038;7.216;2023-07-13T06:31:01;18.80;91.20
1129;DHT22;553;51.038;7.216;2023-07-13T06:33:29;18.80;91.40
1129;DHT22;553;51.038;7.216;2023-07-13T06:35:55;18.90;91.00
1129;DHT22;553;51.038;7.216;2023-07-13T06:38:22;19.20;90.50
1129;DHT22;553;51.038;7.216;2023-07-13T06:40:49;19.30;90.40
1129;DHT22;553;51.038;7.216;2023-07-13T06:43:16;19.60;89.40
1129;DHT22;553;51.038;7.216;2023-07-13T06:45:46;19.50;89.50
1129;DHT22;553;51.038;7.216;2023-07-13T06:48:19;19.80;89.10
1129;DHT22;553;51.038;7.216;2023-07-13T06:50:48;19.70;88.90
1129;DHT22;553;51.038;7.216;2023-07-13T06:53:17;19.60;89.30
1129;DHT22;553;51.038;7.216;2023-07-13T06:55:45;19.70;88.60
1129;DHT22;553;51.038;7.216;2023-07-13T06:58:12;19.70;89.00
1129;DHT22;553;51.038;7.216;2023-07-13T07:00:39;19.80;88.90
1129;DHT22;553;51.038;7.216;2023-07-13T07:03:07;20.00;88.30
1129;DHT22;553;51.038;7.216;2023-07-13T07:05:34;20.10;87.70
1129;DHT22;553;51.038;7.216;2023-07-13T07:08:01;20.00;87.30
1129;DHT22;553;51.038;7.216;2023-07-13T07:10:29;20.00;88.30
1129;DHT22;553;51.038;7.216;2023-07-13T07:12:56;20.20;87.50
1129;DHT22;553;51.038;7.216;2023-07-13T07:15:23;20.40;87.10
1129;DHT22;553;51.038;7.216;2023-07-13T07:17:50;20.40;86.90
1129;DHT22;553;51.038;7.216;2023-07-13T07:20:17;20.30;86.90
1129;DHT22;553;51.038;7.216;2023-07-13T07:22:44;20.10;87.40
1129;DHT22;553;51.038;7.216;2023-07-13T07:25:11;20.20;87.30
1129;DHT22;553;51.038;7.216;2023-07-13T07:27:38;20.20;87.10
1129;DHT22;553;51.038;7.216;2023-07-13T07:30:08;20.50;86.90
1129;DHT22;553;51.038;7.216;2023-07-13T07:32:37;20.50;86.90
1129;DHT22;553;51.038;7.216;2023-07-13T07:35:07;20.70;87.00
1129;DHT22;553;51.038;7.216;2023-07-13T07:37:34;20.70;85.90
1129;DHT22;553;51.038;7.216;2023-07-13T07:40:04;20.80;86.10
1129;DHT22;553;51.038;7.216;2023-07-13T07:42:34;20.80;86.20
1129;DHT22;553;51.038;7.216;2023-07-13T07:45:01;20.60;86.30
1129;DHT22;553;51.038;7.216;2023-07-13T07:47:28;20.70;86.70
1129;DHT22;553;51.038;7.216;2023-07-13T07:49:55;20.70;86.90
1129;DHT22;553;51.038;7.216;2023-07-13T07:52:22;20.40;87.40
1129;DHT22;553;51.038;7.216;2023-07-13T07:54:48;20.30;88.20
1129;DHT22;553;51.038;7.216;2023-07-13T07:57:18;20.50;87.80
1129;DHT22;553;51.038;7.216;2023-07-13T08:00:05;20.40;87.90
1129;DHT22;553;51.038;7.216;2023-07-13T08:02:41;20.70;87.40
1129;DHT22;553;51.038;7.216;2023-07-13T08:05:28;20.70;86.90
1129;DHT22;553;51.038;7.216;2023-07-13T08:07:58;20.40;87.10
1129;DHT22;553;51.038;7.216;2023-07-13T08:10:25;20.30;87.30
1129;DHT22;553;51.038;7.216;2023-07-13T08:12:52;20.40;87.10
1129;DHT22;553;51.038;7.216;2023-07-13T08:15:22;20.30;87.60
1129;DHT22;553;51.038;7.216;2023-07-13T08:17:49;20.30;87.30
1129;DHT22;553;51.038;7.216;2023-07-13T08:20:16;20.60;88.40
1129;DHT22;553;51.038;7.216;2023-07-13T08:22:43;20.70;87.00
1129;DHT22;553;51.038;7.216;2023-07-13T08:25:10;20.40;87.20
1129;DHT22;553;51.038;7.216;2023-07-13T08:27:36;20.50;87.00
1129;DHT22;553;51.038;7.216;2023-07-13T08:30:03;20.70;87.40
1129;DHT22;553;51.038;7.216;2023-07-13T08:32:32;21.10;85.60
1129;DHT22;553;51.038;7.216;2023-07-13T08:34:59;21.20;85.30
1129;DHT22;553;51.038;7.216;2023-07-13T08:37:26;21.40;85.00
1129;DHT22;553;51.038;7.216;2023-07-13T08:39:52;21.40;84.20
1129;DHT22;553;51.038;7.216;2023-07-13T08:47:51;21.10;84.40
1129;DHT22;553;51.038;7.216;2023-07-13T08:50:24;21.00;85.30
1129;DHT22;553;51.038;7.216;2023-07-13T08:52:53;21.10;85.20
1129;DHT22;553;51.038;7.216;2023-07-13T08:55:26;21.30;85.70
1129;DHT22;553;51.038;7.216;2023-07-13T08:58:16;21.60;84.60
1129;DHT22;553;51.038;7.216;2023-07-13T09:00:48;21.70;83.70
1129;DHT22;553;51.038;7.216;2023-07-13T09:03:28;21.70;83.80
1129;DHT22;553;51.038;7.216;2023-07-13T09:05:58;21.70;83.50
1129;DHT22;553;51.038;7.216;2023-07-13T09:11:32;21.50;83.30
1129;DHT22;553;51.038;7.216;2023-07-13T09:14:42;21.50;83.00
1129;DHT22;553;51.038;7.216;2023-07-13T09:17:26;21.70;83.20
1129;DHT22;553;51.038;7.216;2023-07-13T09:20:01;22.00;82.70
1129;DHT22;553;51.038;7.216;2023-07-13T09:22:32;21.90;82.70
1129;DHT22;553;51.038;7.216;2023-07-13T09:28:11;21.90;81.70
1129;DHT22;553;51.038;7.216;2023-07-13T09:31:23;21.90;82.20
1129;DHT22;553;51.038;7.216;2023-07-13T09:33:29;21.90;82.70
1129;DHT22;553;51.038;7.216;2023-07-13T09:35:58;21.90;83.80
1129;DHT22;553;51.038;7.216;2023-07-13T09:38:27;22.20;82.10
1129;DHT22;553;51.038;7.216;2023-07-13T09:44:12;22.20;81.40
1129;DHT22;553;51.038;7.216;2023-07-13T09:46:47;22.40;81.30
1129;DHT22;553;51.038;7.216;2023-07-13T09:49:22;22.80;81.70
1129;DHT22;553;51.038;7.216;2023-07-13T09:52:02;22.80;80.50
1129;DHT22;553;51.038;7.216;2023-07-13T09:54:35;22.90;80.50
1129;DHT22;553;51.038;7.216;2023-07-13T09:57:11;23.00;79.20
1129;DHT22;553;51.038;7.216;2023-07-13T09:59:44;23.00;79.80
1129;DHT22;553;51.038;7.216;2023-07-13T10:04:58;23.20;77.90
1129;DHT22;553;51.038;7.216;2023-07-13T10:07:25;23.20;77.10
1129;DHT22;553;51.038;7.216;2023-07-13T10:09:58;23.40;77.90
1129;DHT22;553;51.038;7.216;2023-07-13T10:12:35;23.30;78.60
1129;DHT22;553;51.038;7.216;2023-07-13T10:15:03;23.20;78.60
1129;DHT22;553;51.038;7.216;2023-07-13T10:17:51;23.00;79.10
1129;DHT22;553;51.038;7.216;2023-07-13T10:20:18;23.00;78.60
1129;DHT22;553;51.038;7.216;2023-07-13T10:25:35;23.00;79.60
1129;DHT22;553;51.038;7.216;2023-07-13T10:28:16;23.40;78.30
1129;DHT22;553;51.038;7.216;2023-07-13T10:30:48;23.50;77.50
1129;DHT22;553;51.038;7.216;2023-07-13T10:33:16;23.40;77.70
1129;DHT22;553;51.038;7.216;2023-07-13T10:35:44;23.40;77.70
1129;DHT22;553;51.038;7.216;2023-07-13T10:38:21;23.60;76.10
1129;DHT22;553;51.038;7.216;2023-07-13T10:43:29;23.50;78.00
1129;DHT22;553;51.038;7.216;2023-07-13T10:45:59;23.60;77.50
1129;DHT22;553;51.038;7.216;2023-07-13T10:48:27;23.50;77.40
1129;DHT22;553;51.038;7.216;2023-07-13T10:50:56;23.50;78.20
1129;DHT22;553;51.038;7.216;2023-07-13T10:53:32;23.40;77.70
1129;DHT22;553;51.038;7.216;2023-07-13T10:56:00;23.40;79.00
1129;DHT22;553;51.038;7.216;2023-07-13T10:58:38;23.50;77.80
1129;DHT22;553;51.038;7.216;2023-07-13T11:03:35;23.10;78.50
1129;DHT22;553;51.038;7.216;2023-07-13T11:14:01;23.10;78.00
1129;DHT22;553;51.038;7.216;2023-07-13T11:16:57;23.30;77.60
1129;DHT22;553;51.038;7.216;2023-07-13T11:19:27;23.30;76.50
1129;DHT22;553;51.038;7.216;2023-07-13T11:25:01;23.50;76.50
1129;DHT22;553;51.038;7.216;2023-07-13T11:27:42;23.50;76.60
1129;DHT22;553;51.038;7.216;2023-07-13T11:36:02;23.10;76.90
1129;DHT22;553;51.038;7.216;2023-07-13T11:41:16;23.20;77.40
1129;DHT22;553;51.038;7.216;2023-07-13T11:43:44;23.20;76.60
1129;DHT22;553;51.038;7.216;2023-07-13T11:46:16;23.10;77.00
1129;DHT22;553;51.038;7.216;2023-07-13T11:48:45;23.10;76.60
1129;DHT22;553;51.038;7.216;2023-07-13T11:51:23;23.10;77.10
1129;DHT22;553;51.038;7.216;2023-07-13T11:53:54;23.00;77.40
1129;DHT22;553;51.038;7.216;2023-07-13T11:56:24;23.20;76.90
1129;DHT22;553;51.038;7.216;2023-07-13T11:58:54;23.20;77.00
1129;DHT22;553;51.038;7.216;2023-07-13T12:01:28;23.40;76.60
1129;DHT22;553;51.038;7.216;2023-07-13T12:04:03;23.30;76.10
1129;DHT22;553;51.038;7.216;2023-07-13T12:06:33;23.40;76.70
1129;DHT22;553;51.038;7.216;2023-07-13T12:09:09;23.60;76.80
1129;DHT22;553;51.038;7.216;2023-07-13T12:11:43;23.70;75.60
1129;DHT22;553;51.038;7.216;2023-07-13T12:14:17;23.70;75.50
1129;DHT22;553;51.038;7.216;2023-07-13T12:16:46;23.80;75.00
1129;DHT22;553;51.038;7.216;2023-07-13T12:19:25;23.80;74.00
1129;DHT22;553;51.038;7.216;2023-07-13T12:21:57;23.60;75.30
1129;DHT22;553;51.038;7.216;2023-07-13T12:24:25;23.60;75.70
1129;DHT22;553;51.038;7.216;2023-07-13T12:26:54;23.60;76.30
1129;DHT22;553;51.038;7.216;2023-07-13T12:29:21;23.70;75.60
1129;DHT22;553;51.038;7.216;2023-07-13T12:31:49;23.80;74.80
1129;DHT22;553;51.038;7.216;2023-07-13T12:34:21;23.80;74.50
1129;DHT22;553;51.038;7.216;2023-07-13T12:36:51;23.80;73.30
1129;DHT22;553;51.038;7.216;2023-07-13T12:39:35;23.50;74.00
1129;DHT22;553;51.038;7.216;2023-07-13T12:42:25;23.30;74.60
1129;DHT22;553;51.038;7.216;2023-07-13T12:45:18;23.30;75.60
1129;DHT22;553;51.038;7.216;2023-07-13T12:47:52;23.40;74.80
1129;DHT22;553;51.038;7.216;2023-07-13T12:50:23;23.30;75.30
1129;DHT22;553;51.038;7.216;2023-07-13T12:52:54;23.30;76.00
1129;DHT22;553;51.038;7.216;2023-07-13T12:55:23;23.40;75.30
1129;DHT22;553;51.038;7.216;2023-07-13T12:57:54;23.60;75.20
1129;DHT22;553;51.038;7.216;2023-07-13T13:00:36;23.40;74.60
1129;DHT22;553;51.038;7.216;2023-07-13T13:03:07;23.40;75.00
1129;DHT22;553;51.038;7.216;2023-07-13T13:06:42;23.40;74.80
1129;DHT22;553;51.038;7.216;2023-07-13T13:08:54;23.70;74.40
1129;DHT22;553;51.038;7.216;2023-07-13T13:11:24;23.60;74.00
1129;DHT22;553;51.038;7.216;2023-07-13T13:13:50;23.60;72.50
1129;DHT22;553;51.038;7.216;2023-07-13T13:16:30;23.70;73.10
1129;DHT22;553;51.038;7.216;2023-07-13T13:19:05;23.70;71.90
1129;DHT22;553;51.038;7.216;2023-07-13T13:21:36;23.70;73.10
1129;DHT22;553;51.038;7.216;2023-07-13T13:24:12;23.80;72.70
1129;DHT22;553;51.038;7.216;2023-07-13T13:26:40;23.90;72.50
1129;DHT22;553;51.038;7.216;2023-07-13T13:29:21;24.00;71.70
1129;DHT22;553;51.038;7.216;2023-07-13T13:31:51;23.80;72.80
1129;DHT22;553;51.038;7.216;2023-07-13T13:34:20;23.70;73.70
1129;DHT22;553;51.038;7.216;2023-07-13T13:36:50;23.90;73.50
1129;DHT22;553;51.038;7.216;2023-07-13T13:39:29;24.00;73.20
1129;DHT22;553;51.038;7.216;2023-07-13T13:41:56;24.10;73.30
1129;DHT22;553;51.038;7.216;2023-07-13T13:44:23;24.10;72.40
1129;DHT22;553;51.038;7.216;2023-07-13T13:46:53;24.00;72.50
1129;DHT22;553;51.038;7.216;2023-07-13T13:49:23;24.00;72.30
1129;DHT22;553;51.038;7.216;2023-07-13T13:51:51;24.10;72.00
1129;DHT22;553;51.038;7.216;2023-07-13T13:54:19;24.10;70.20
1129;DHT22;553;51.038;7.216;2023-07-13T13:56:50;24.30;69.50
1129;DHT22;553;51.038;7.216;2023-07-13T13:59:18;24.40;69.80
1129;DHT22;553;51.038;7.216;2023-07-13T14:01:46;24.30;69.30
1129;DHT22;553;51.038;7.216;2023-07-13T14:04:22;24.50;69.30
1129;DHT22;553;51.038;7.216;2023-07-13T14:06:48;24.50;69.40
1129;DHT22;553;51.038;7.216;2023-07-13T14:09:17;24.50;69.50
1129;DHT22;553;51.038;7.216;2023-07-13T14:11:46;24.70;69.20
1129;DHT22;553;51.038;7.216;2023-07-13T14:14:22;24.50;69.60
1129;DHT22;553;51.038;7.216;2023-07-13T14:16:51;24.50;69.50
1129;DHT22;553;51.038;7.216;2023-07-13T14:19:22;24.50;69.60
1129;DHT22;553;51.038;7.216;2023-07-13T14:21:49;24.40;69.20
1129;DHT22;553;51.038;7.216;2023-07-13T14:24:19;24.30;70.00
1129;DHT22;553;51.038;7.216;2023-07-13T14:26:46;24.30;70.10
1129;DHT22;553;51.038;7.216;2023-07-13T14:29:16;24.50;69.00
1129;DHT22;553;51.038;7.216;2023-07-13T14:31:49;24.50;69.50
1129;DHT22;553;51.038;7.216;2023-07-13T14:34:15;24.40;69.50
1129;DHT22;553;51.038;7.216;2023-07-13T14:36:45;24.50;69.50
1129;DHT22;553;51.038;7.216;2023-07-13T14:39:16;24.50;69.60
1129;DHT22;553;51.038;7.216;2023-07-13T14:41:44;24.40;69.90
1129;DHT22;553;51.038;7.216;2023-07-13T14:44:15;24.40;69.90
1129;DHT22;553;51.038;7.216;2023-07-13T14:46:44;24.50;69.10
1129;DHT22;553;51.038;7.216;2023-07-13T14:51:43;24.60;69.10
1129;DHT22;553;51.038;7.216;2023-07-13T14:54:10;24.50;69.50
1129;DHT22;553;51.038;7.216;2023-07-13T14:56:38;24.50;69.00
1129;DHT22;553;51.038;7.216;2023-07-13T14:59:05;24.50;68.60
1129;DHT22;553;51.038;7.216;2023-07-13T15:01:31;24.50;68.90
1129;DHT22;553;51.038;7.216;2023-07-13T15:03:59;24.50;69.20
1129;DHT22;553;51.038;7.216;2023-07-13T15:06:26;24.30;69.50
1129;DHT22;553;51.038;7.216;2023-07-13T15:08:52;24.20;69.80
1129;DHT22;553;51.038;7.216;2023-07-13T15:11:19;24.20;69.60
1129;DHT22;553;51.038;7.216;2023-07-13T15:13:46;24.20;69.90
1129;DHT22;553;51.038;7.216;2023-07-13T15:16:18;24.20;70.00
1129;DHT22;553;51.038;7.216;2023-07-13T15:18:47;24.20;70.50
1129;DHT22;553;51.038;7.216;2023-07-13T15:21:23;24.10;70.40
1129;DHT22;553;51.038;7.216;2023-07-13T15:23:50;24.10;70.70
1129;DHT22;553;51.038;7.216;2023-07-13T15:26:18;24.00;71.00
1129;DHT22;553;51.038;7.216;2023-07-13T15:28:46;24.10;71.00
1129;DHT22;553;51.038;7.216;2023-07-13T15:31:24;24.20;70.60
1129;DHT22;553;51.038;7.216;2023-07-13T15:33:52;24.20;70.10
1129;DHT22;553;51.038;7.216;2023-07-13T15:36:20;24.30;70.80
1129;DHT22;553;51.038;7.216;2023-07-13T15:38:49;24.30;70.30
1129;DHT22;553;51.038;7.216;2023-07-13T15:41:20;24.30;68.90
1129;DHT22;553;51.038;7.216;2023-07-13T15:43:50;24.40;69.80
1129;DHT22;553;51.038;7.216;2023-07-13T15:46:19;24.50;69.60
1129;DHT22;553;51.038;7.216;2023-07-13T15:48:51;24.50;69.00
1129;DHT22;553;51.038;7.216;2023-07-13T15:51:29;24.40;69.60
1129;DHT22;553;51.038;7.216;2023-07-13T15:53:59;24.30;69.70
1129;DHT22;553;51.038;7.216;2023-07-13T15:56:34;24.20;70.40
1129;DHT22;553;51.038;7.216;2023-07-13T15:59:02;24.20;70.50
1129;DHT22;553;51.038;7.216;2023-07-13T16:01:30;24.00;73.40
1129;DHT22;553;51.038;7.216;2023-07-13T16:03:59;23.60;74.90
1129;DHT22;553;51.038;7.216;2023-07-13T16:06:30;23.20;76.40
1129;DHT22;553;51.038;7.216;2023-07-13T16:08:57;23.00;77.10
1129;DHT22;553;51.038;7.216;2023-07-13T16:11:27;22.90;78.20
1129;DHT22;553;51.038;7.216;2023-07-13T16:13:54;22.70;79.20
1129;DHT22;553;51.038;7.216;2023-07-13T16:16:32;22.50;79.40
1129;DHT22;553;51.038;7.216;2023-07-13T16:19:02;22.50;80.20
1129;DHT22;553;51.038;7.216;2023-07-13T16:21:35;22.30;80.70
1129;DHT22;553;51.038;7.216;2023-07-13T16:24:03;22.20;81.50
1129;DHT22;553;51.038;7.216;2023-07-13T16:26:34;22.20;81.60
1129;DHT22;553;51.038;7.216;2023-07-13T16:29:17;22.00;82.40
1129;DHT22;553;51.038;7.216;2023-07-13T16:32:04;21.90;83.20
1129;DHT22;553;51.038;7.216;2023-07-13T16:34:36;21.90;83.70
1129;DHT22;553;51.038;7.216;2023-07-13T16:37:16;22.00;83.90
1129;DHT22;553;51.038;7.216;2023-07-13T16:39:47;22.00;83.90
1129;DHT22;553;51.038;7.216;2023-07-13T16:42:15;21.90;84.10
1129;DHT22;553;51.038;7.216;2023-07-13T16:44:42;21.90;84.30
1129;DHT22;553;51.038;7.216;2023-07-13T16:47:14;21.90;84.80
1129;DHT22;553;51.038;7.216;2023-07-13T16:49:42;21.90;84.80
1129;DHT22;553;51.038;7.216;2023-07-13T16:52:14;21.90;84.80
1129;DHT22;553;51.038;7.216;2023-07-13T16:54:41;21.90;85.20
1129;DHT22;553;51.038;7.216;2023-07-13T16:59:41;21.80;85.70
1129;DHT22;553;51.038;7.216;2023-07-13T17:02:35;21.70;85.10
1129;DHT22;553;51.038;7.216;2023-07-13T17:05:03;21.70;85.80
1129;DHT22;553;51.038;7.216;2023-07-13T17:07:31;21.80;85.80
1129;DHT22;553;51.038;7.216;2023-07-13T17:09:58;21.90;85.30
1129;DHT22;553;51.038;7.216;2023-07-13T17:12:26;21.90;85.50
1129;DHT22;553;51.038;7.216;2023-07-13T17:14:53;21.90;85.30
1129;DHT22;553;51.038;7.216;2023-07-13T17:17:38;21.80;85.30
1129;DHT22;553;51.038;7.216;2023-07-13T17:20:21;21.80;85.10
1129;DHT22;553;51.038;7.216;2023-07-13T17:22:49;21.80;85.30
1129;DHT22;553;51.038;7.216;2023-07-13T17:25:19;21.90;85.40
1129;DHT22;553;51.038;7.216;2023-07-13T17:27:48;22.00;85.50
1129;DHT22;553;51.038;7.216;2023-07-13T17:30:17;21.90;85.60